Time;durP1;ratioP1;P1;durP2;ratioP2;P2;SDS_P1;SDS_P2;PMS_P1;PMS_P2;Temp;Humidity;BMP_temperature;BMP_pressure;BME280_temperature;BME280_humidity;BME280_pressure;Samples;Min_cycle;Max_cycle;Signal;HPM_P1;HPM_P2
2022/02/19 00:00:09;;;;;;;10.50;7.95;;;5.50;99.90;;;;;;4985266;28;20126;-72
2022/02/19 00:02:40;;;;;;;13.37;8.87;;;5.50;99.90;;;;;;4999421;28;20058;-73
2022/02/19 00:05:07;;;;;;;14.38;9.32;;;5.50;99.90;;;;;;4999126;28;20108;-75
2022/02/19 00:07:34;;;;;;;16.23;9.85;;;5.40;99.90;;;;;;4983780;28;20042;-72
2022/02/19 00:10:01;;;;;;;21.75;9.57;;;5.40;99.90;;;;;;4972282;28;20050;-75
2022/02/19 00:12:28;;;;;;;10.45;9.35;;;5.40;99.90;;;;;;4981596;28;20112;-73
2022/02/19 00:14:55;;;;;;;16.52;9.95;;;5.40;99.90;;;;;;4982447;28;20051;-74
2022/02/19 00:17:22;;;;;;;17.73;9.52;;;5.30;99.90;;;;;;4985963;28;20137;-74
2022/02/19 00:19:50;;;;;;;17.90;10.18;;;5.20;99.90;;;;;;5002648;28;20065;-75
2022/02/19 00:22:17;;;;;;;10.55;9.73;;;5.10;99.90;;;;;;4987822;28;20452;-75
2022/02/19 00:24:43;;;;;;;18.05;10.23;;;5.30;99.90;;;;;;4987484;28;20077;-75
2022/02/19 00:27:11;;;;;;;11.13;9.63;;;5.20;99.90;;;;;;4986936;28;20054;-75
2022/02/19 00:29:38;;;;;;;18.10;12.43;;;5.10;99.90;;;;;;4986681;28;20603;-74
2022/02/19 00:32:06;;;;;;;11.05;9.90;;;5.00;99.90;;;;;;4990270;28;20437;-75
2022/02/19 00:34:34;;;;;;;11.05;9.60;;;5.10;99.90;;;;;;5003270;28;20459;-74
2022/02/19 00:37:01;;;;;;;10.68;9.60;;;5.10;99.90;;;;;;4987615;28;20050;-74
2022/02/19 00:39:29;;;;;;;13.70;10.07;;;5.00;99.90;;;;;;4978852;28;20046;-75
2022/02/19 00:41:56;;;;;;;10.50;9.48;;;5.00;99.90;;;;;;4978228;28;20058;-75
2022/02/19 00:44:24;;;;;;;10.75;10.07;;;5.10;99.90;;;;;;4971231;28;20050;-74
2022/02/19 00:46:51;;;;;;;11.43;10.32;;;5.10;99.90;;;;;;4969212;28;20047;-74
2022/02/19 00:49:18;;;;;;;12.13;10.00;;;5.00;99.90;;;;;;4986516;28;20127;-75
2022/02/19 00:51:45;;;;;;;11.95;10.63;;;5.00;99.90;;;;;;4985749;28;20053;-75
2022/02/19 00:54:12;;;;;;;14.60;10.52;;;5.00;99.90;;;;;;4984050;28;20316;-74
2022/02/19 00:56:39;;;;;;;14.85;10.60;;;5.00;99.90;;;;;;5003223;28;20203;-75
2022/02/19 00:59:09;;;;;;;13.35;9.77;;;5.00;99.90;;;;;;5002083;28;20046;-74
2022/02/19 01:01:37;;;;;;;14.07;8.98;;;4.90;99.90;;;;;;5000378;28;20046;-74
2022/02/19 01:04:20;;;;;;;11.63;9.30;;;4.60;99.90;;;;;;4970739;28;20051;-75
2022/02/19 01:06:47;;;;;;;11.98;7.45;;;4.40;99.90;;;;;;4985784;28;20235;-75
2022/02/19 01:09:14;;;;;;;10.82;7.43;;;4.30;99.90;;;;;;4992542;28;20066;-75
2022/02/19 01:11:41;;;;;;;15.65;7.97;;;4.20;99.90;;;;;;4980501;28;20303;-75
2022/02/19 01:14:08;;;;;;;7.72;7.00;;;4.20;99.90;;;;;;4973154;28;20462;-74
2022/02/19 01:16:36;;;;;;;14.27;7.82;;;4.10;99.90;;;;;;4969736;28;20332;-74
2022/02/19 01:19:03;;;;;;;8.73;7.93;;;4.20;99.90;;;;;;4985925;28;20039;-75
2022/02/19 01:21:30;;;;;;;12.48;7.60;;;4.20;99.90;;;;;;4989970;28;20386;-74
2022/02/19 01:23:58;;;;;;;10.38;7.85;;;4.20;99.90;;;;;;4987525;28;20181;-74
2022/02/19 01:26:24;;;;;;;18.80;8.23;;;4.20;99.90;;;;;;4986429;28;20136;-74
2022/02/19 01:28:54;;;;;;;13.57;8.45;;;4.20;99.90;;;;;;4986090;28;20108;-74
2022/02/19 01:31:25;;;;;;;15.98;8.77;;;4.20;99.90;;;;;;4985298;28;20503;-74
2022/02/19 01:33:52;;;;;;;12.80;8.57;;;4.20;99.90;;;;;;4987173;28;20085;-74
2022/02/19 01:36:19;;;;;;;11.38;8.15;;;4.20;99.90;;;;;;5001176;28;20549;-74
2022/02/19 01:38:46;;;;;;;9.52;8.63;;;4.20;99.90;;;;;;4980898;28;20768;-74
2022/02/19 01:41:13;;;;;;;16.98;9.30;;;4.20;99.90;;;;;;4993891;28;20046;-75
2022/02/19 01:43:40;;;;;;;11.45;9.18;;;4.20;99.90;;;;;;4974923;28;20266;-74
2022/02/19 01:46:07;;;;;;;17.95;9.40;;;4.20;99.90;;;;;;4982267;28;20209;-74
2022/02/19 01:48:35;;;;;;;11.13;8.38;;;4.20;99.90;;;;;;4997550;28;20062;-74
2022/02/19 01:51:02;;;;;;;13.10;9.65;;;4.20;99.90;;;;;;5000306;28;20057;-74
2022/02/19 01:53:31;;;;;;;16.05;9.48;;;4.20;99.90;;;;;;4984486;28;20104;-73
2022/02/19 01:56:06;;;;;;;9.60;8.52;;;4.10;99.90;;;;;;4998224;28;20423;-74
2022/02/19 01:58:43;;;;;;;13.45;9.98;;;4.20;99.90;;;;;;4985639;28;20049;-74
2022/02/19 02:01:18;;;;;;;11.63;9.20;;;4.20;99.90;;;;;;4985102;28;20039;-75
2022/02/19 02:04:04;;;;;;;12.25;8.15;;;4.20;99.90;;;;;;4987380;28;20121;-75
2022/02/19 02:06:33;;;;;;;10.63;9.57;;;4.10;99.90;;;;;;4983955;28;20173;-74
2022/02/19 02:09:04;;;;;;;11.75;10.27;;;4.10;99.90;;;;;;4982327;28;20801;-75
2022/02/19 02:11:37;;;;;;;12.38;9.93;;;4.10;99.90;;;;;;4973706;28;20137;-74
2022/02/19 02:14:09;;;;;;;14.25;10.63;;;4.10;99.90;;;;;;4973643;28;20051;-74
2022/02/19 02:16:54;;;;;;;11.95;10.13;;;4.10;99.90;;;;;;4966289;28;20097;-74
2022/02/19 02:19:23;;;;;;;9.98;9.18;;;4.10;99.90;;;;;;4982292;28;20066;-75
2022/02/19 02:22:08;;;;;;;11.48;10.27;;;4.10;99.90;;;;;;4964992;28;20078;-75
2022/02/19 02:24:36;;;;;;;12.77;9.77;;;4.10;99.90;;;;;;4981764;28;20043;-75
2022/02/19 02:27:07;;;;;;;10.95;9.90;;;4.10;99.90;;;;;;4964797;28;20058;-74
2022/02/19 02:29:47;;;;;;;13.55;9.70;;;4.20;99.90;;;;;;4967810;28;20193;-74
2022/02/19 02:32:21;;;;;;;13.32;10.48;;;4.20;99.90;;;;;;4973360;28;20046;-75
2022/02/19 02:34:56;;;;;;;17.88;10.75;;;4.20;99.90;;;;;;4984323;28;20109;-75
2022/02/19 02:37:30;;;;;;;16.90;10.23;;;4.20;99.90;;;;;;5000577;28;20069;-75
2022/02/19 02:39:57;;;;;;;11.10;9.52;;;4.20;99.90;;;;;;4980883;28;20047;-75
2022/02/19 02:42:30;;;;;;;18.80;10.13;;;4.20;99.90;;;;;;4982513;28;20051;-74
2022/02/19 02:45:00;;;;;;;13.32;11.70;;;4.30;99.90;;;;;;4984282;28;20046;-75
2022/02/19 02:47:48;;;;;;;14.18;10.32;;;4.20;99.90;;;;;;4976597;28;20363;-75
2022/02/19 02:50:15;;;;;;;13.68;10.35;;;4.20;99.90;;;;;;4997298;28;20054;-75
2022/02/19 02:52:42;;;;;;;12.95;11.27;;;4.20;99.90;;;;;;4980549;28;20509;-75
2022/02/19 02:55:13;;;;;;;13.38;10.45;;;4.20;99.90;;;;;;4993194;28;20057;-75
2022/02/19 02:57:41;;;;;;;11.18;9.98;;;4.20;99.90;;;;;;5003333;28;20403;-74
2022/02/19 03:00:11;;;;;;;10.70;9.73;;;4.20;99.90;;;;;;4983618;28;20050;-74
2022/02/19 03:02:41;;;;;;;11.90;10.55;;;4.20;99.90;;;;;;4999746;28;20049;-75
2022/02/19 03:05:09;;;;;;;14.15;10.63;;;4.20;99.90;;;;;;4983842;28;20101;-75
2022/02/19 03:07:37;;;;;;;15.13;11.20;;;4.30;99.90;;;;;;4983746;28;20504;-75
2022/02/19 03:10:07;;;;;;;11.07;10.05;;;4.30;99.90;;;;;;4980114;28;20066;-74
2022/02/19 03:12:37;;;;;;;10.45;9.38;;;4.30;99.90;;;;;;4974020;28;20176;-75
2022/02/19 03:17:59;;;;;;;10.65;9.80;;;4.30;99.90;;;;;;5011826;28;20431;-75
2022/02/19 03:20:27;;;;;;;13.18;9.70;;;4.20;99.90;;;;;;5009915;28;20068;-71
2022/02/19 03:22:54;;;;;;;10.98;9.95;;;4.20;99.90;;;;;;5021811;28;20057;-76
2022/02/19 03:25:21;;;;;;;12.73;10.70;;;4.20;99.90;;;;;;4993937;28;20041;-73
2022/02/19 03:27:54;;;;;;;10.77;9.98;;;4.30;99.90;;;;;;5013208;28;20533;-75
2022/02/19 03:30:27;;;;;;;;;;;4.30;99.90;;;;;;5015007;28;20049;-78
2022/02/19 03:32:55;;;;;;;11.73;10.55;;;4.30;99.90;;;;;;5013378;28;19948;-73
2022/02/19 03:35:24;;;;;;;11.73;9.80;;;4.30;99.90;;;;;;4994910;28;20077;-78
2022/02/19 03:37:52;;;;;;;12.40;10.55;;;4.30;99.90;;;;;;5011419;28;20215;-73
2022/02/19 03:40:27;;;;;;;10.40;9.50;;;4.30;99.90;;;;;;4994645;28;20038;-74
2022/02/19 03:42:54;;;;;;;12.35;10.55;;;4.30;99.90;;;;;;5012748;28;20050;-71
2022/02/19 03:45:21;;;;;;;11.85;10.20;;;4.30;99.90;;;;;;5012359;28;20053;-73
2022/02/19 03:48:01;;;;;;;13.18;10.77;;;4.20;99.90;;;;;;5028246;28;20140;-75
2022/02/19 03:50:30;;;;;;;11.68;10.60;;;4.20;99.90;;;;;;5012259;28;20075;-75
2022/02/19 03:52:57;;;;;;;12.52;9.95;;;4.10;99.90;;;;;;5012344;28;20116;-73
2022/02/19 03:55:31;;;;;;;10.05;9.25;;;4.20;99.90;;;;;;5012575;28;20072;-71
2022/02/19 03:57:59;;;;;;;10.18;9.43;;;4.10;99.90;;;;;;4993349;28;20050;-74
2022/02/19 04:00:29;;;;;;;11.15;9.77;;;4.10;99.90;;;;;;4994855;28;20529;-70
2022/02/19 04:02:56;;;;;;;10.73;9.48;;;4.20;99.90;;;;;;5011808;28;20049;-74
2022/02/19 04:05:26;;;;;;;9.85;8.95;;;4.10;99.90;;;;;;5029679;28;20079;-73
2022/02/19 04:07:53;;;;;;;17.52;10.57;;;4.10;99.90;;;;;;5011430;28;20049;-73
2022/02/19 04:10:23;;;;;;;13.52;10.60;;;4.10;99.90;;;;;;5013006;28;20045;-76
2022/02/19 04:12:51;;;;;;;11.38;10.13;;;4.10;99.90;;;;;;5008839;28;20053;-72
2022/02/19 04:15:32;;;;;;;11.30;10.35;;;4.10;99.90;;;;;;5010262;28;20057;-75
2022/02/19 04:18:01;;;;;;;13.40;9.95;;;4.00;99.90;;;;;;4995833;28;20045;-71
2022/02/19 04:20:30;;;;;;;10.20;9.18;;;3.80;99.90;;;;;;4996683;28;20373;-77
2022/02/19 04:22:57;;;;;;;13.95;10.10;;;3.80;99.90;;;;;;4994130;28;20050;-75
2022/02/19 04:25:26;;;;;;;10.38;9.40;;;3.80;99.90;;;;;;5010992;28;20053;-76
2022/02/19 04:27:55;;;;;;;13.65;10.38;;;3.90;99.90;;;;;;4996314;28;20057;-77
2022/02/19 04:30:23;;;;;;;15.50;10.88;;;3.90;99.90;;;;;;5029895;28;20294;-74
2022/02/19 04:32:58;;;;;;;11.60;10.07;;;4.00;99.90;;;;;;5028260;28;20549;-75
2022/02/19 04:35:27;;;;;;;11.73;10.52;;;4.00;99.90;;;;;;5028064;28;20492;-74
2022/02/19 04:37:54;;;;;;;11.43;10.23;;;4.00;99.90;;;;;;5022688;28;20458;-76
2022/02/19 04:40:23;;;;;;;21.33;9.82;;;4.00;99.90;;;;;;5011290;28;20149;-74
2022/02/19 04:42:51;;;;;;;11.32;10.27;;;3.90;99.90;;;;;;5011944;28;20197;-73
2022/02/19 04:45:25;;;;;;;27.10;10.70;;;3.90;99.90;;;;;;5009773;28;20045;-75
2022/02/19 04:47:54;;;;;;;11.48;10.35;;;3.80;99.90;;;;;;5002720;28;20461;-75
2022/02/19 04:50:23;;;;;;;12.40;10.50;;;3.80;99.90;;;;;;4976208;28;20127;-74
2022/02/19 04:52:53;;;;;;;12.05;9.68;;;3.70;99.90;;;;;;4991475;28;20057;-73
2022/02/19 04:55:21;;;;;;;18.63;9.98;;;3.70;99.90;;;;;;4998537;28;20403;-76
2022/02/19 04:57:51;;;;;;;10.48;9.45;;;3.70;99.90;;;;;;5027176;28;20048;-75
2022/02/19 05:00:19;;;;;;;19.58;10.00;;;3.70;99.90;;;;;;5027851;28;20647;-72
2022/02/19 05:03:22;;;;;;;13.60;10.55;;;3.70;99.90;;;;;;4943244;28;20054;-75
2022/02/19 05:06:15;;;;;;;10.73;9.93;;;3.60;99.90;;;;;;5009268;28;20510;-72
2022/02/19 05:08:56;;;;;;;12.18;10.63;;;3.70;99.90;;;;;;5012905;28;20119;-75
2022/02/19 05:11:26;;;;;;;12.57;10.98;;;3.70;99.90;;;;;;5013495;28;20865;-73
2022/02/19 05:13:53;;;;;;;17.67;10.88;;;3.70;99.90;;;;;;5013224;28;20045;-72
2022/02/19 05:16:21;;;;;;;11.57;10.40;;;3.60;99.90;;;;;;4997067;28;20049;-75
2022/02/19 05:19:03;;;;;;;13.25;12.02;;;3.70;99.90;;;;;;5029952;28;20588;-71
2022/02/19 05:21:35;;;;;;;14.25;12.80;;;3.70;99.90;;;;;;4998483;28;20048;-77
2022/02/19 05:24:03;;;;;;;13.77;12.27;;;3.60;99.90;;;;;;5030678;28;20123;-75
2022/02/19 05:26:43;;;;;;;12.60;11.45;;;3.70;99.90;;;;;;5000113;28;20779;-73
2022/02/19 05:29:13;;;;;;;13.07;12.00;;;3.70;99.90;;;;;;5030950;28;20053;-73
2022/02/19 05:31:41;;;;;;;19.33;12.63;;;3.70;99.90;;;;;;4998671;28;20084;-72
2022/02/19 05:34:41;;;;;;;12.88;12.00;;;3.70;99.90;;;;;;4995488;28;20045;-76
2022/02/19 05:37:09;;;;;;;14.77;12.60;;;3.70;99.90;;;;;;5014397;28;20069;-73
2022/02/19 05:39:44;;;;;;;15.70;12.57;;;3.70;99.90;;;;;;5012725;28;20195;-77
2022/02/19 05:42:13;;;;;;;13.73;12.63;;;3.70;99.90;;;;;;5010360;28;20525;-75
2022/02/19 05:44:42;;;;;;;15.18;11.85;;;3.70;99.90;;;;;;5010595;28;20042;-73
2022/02/19 05:47:10;;;;;;;14.98;12.32;;;3.70;99.90;;;;;;5009510;28;20456;-73
2022/02/19 05:49:42;;;;;;;13.20;12.05;;;3.70;99.90;;;;;;5013710;28;20057;-75
2022/02/19 05:52:17;;;;;;;14.33;12.87;;;3.70;99.90;;;;;;4997739;28;20057;-72
2022/02/19 05:55:13;;;;;;;16.25;12.23;;;3.70;99.90;;;;;;5027663;28;20046;-73
2022/02/19 05:57:41;;;;;;;12.75;11.82;;;3.70;99.90;;;;;;5030113;28;20050;-71
2022/02/19 06:00:10;;;;;;;13.88;12.50;;;3.70;99.90;;;;;;5014302;28;20050;-70
2022/02/19 06:02:42;;;;;;;14.77;13.32;;;3.70;99.90;;;;;;5013308;28;20049;-72
2022/02/19 06:05:10;;;;;;;15.43;13.82;;;3.70;99.90;;;;;;5012500;28;20418;-73
2022/02/19 06:07:42;;;;;;;13.48;12.27;;;3.70;99.90;;;;;;5028498;28;20052;-70
2022/02/19 06:10:10;;;;;;;12.95;12.07;;;3.60;99.90;;;;;;5013159;28;20426;-72
2022/02/19 06:12:38;;;;;;;14.70;11.13;;;3.50;99.90;;;;;;5012462;28;20049;-74
2022/02/19 06:15:10;;;;;;;14.25;10.85;;;3.40;99.90;;;;;;5012193;28;20588;-77
2022/02/19 06:17:55;;;;;;;17.80;11.52;;;3.30;99.90;;;;;;5013236;28;20053;-77
2022/02/19 06:20:24;;;;;;;14.57;10.70;;;3.20;99.90;;;;;;5014033;28;20103;-71
2022/02/19 06:22:51;;;;;;;12.55;10.65;;;3.20;99.90;;;;;;4996564;28;20045;-72
2022/02/19 06:25:19;;;;;;;14.98;13.43;;;3.30;99.90;;;;;;5028996;28;20044;-75
2022/02/19 06:27:46;;;;;;;13.57;12.25;;;3.40;99.90;;;;;;5012451;28;20191;-77
2022/02/19 06:30:24;;;;;;;14.52;11.70;;;3.40;99.90;;;;;;5029550;28;20342;-78
2022/02/19 06:32:55;;;;;;;14.68;11.23;;;3.50;99.90;;;;;;4997238;28;20573;-76
2022/02/19 06:35:25;;;;;;;14.07;10.57;;;3.50;99.90;;;;;;5014547;28;20077;-74
2022/02/19 06:38:02;;;;;;;16.35;10.05;;;3.50;99.90;;;;;;5027615;28;20421;-76
2022/02/19 06:40:29;;;;;;;15.45;10.18;;;3.40;99.90;;;;;;4994420;28;20642;-73
2022/02/19 06:42:56;;;;;;;16.55;8.18;;;3.20;99.90;;;;;;5027417;28;20513;-74
2022/02/19 06:45:25;;;;;;;19.08;8.77;;;2.90;99.90;;;;;;5011665;28;20054;-75
2022/02/19 06:47:54;;;;;;;12.68;7.35;;;2.70;99.90;;;;;;5012746;28;20080;-74
2022/02/19 06:50:24;;;;;;;14.60;7.45;;;2.50;99.90;;;;;;5028090;28;20125;-74
2022/02/19 06:52:55;;;;;;;13.38;6.35;;;2.50;99.90;;;;;;5010105;28;20061;-74
2022/02/19 06:55:22;;;;;;;11.82;7.65;;;2.40;99.90;;;;;;4994297;28;20072;-76
2022/02/19 06:57:50;;;;;;;14.10;9.05;;;2.40;99.90;;;;;;5008941;28;20061;-76
2022/02/19 07:00:19;;;;;;;15.77;9.95;;;2.60;99.90;;;;;;5013272;28;20057;-74
2022/02/19 07:02:54;;;;;;;15.70;12.75;;;2.80;99.90;;;;;;5028676;28;20059;-75
2022/02/19 07:05:22;;;;;;;14.98;11.82;;;2.90;99.90;;;;;;5012044;28;20053;-74
2022/02/19 07:07:49;;;;;;;16.17;14.73;;;3.00;99.90;;;;;;5012926;28;20049;-75
2022/02/19 07:10:16;;;;;;;16.73;13.48;;;3.10;99.90;;;;;;5028045;28;20050;-75
2022/02/19 07:12:44;;;;;;;17.95;15.00;;;3.10;99.90;;;;;;5010396;28;20526;-74
2022/02/19 07:15:12;;;;;;;16.23;13.98;;;3.20;99.90;;;;;;5010605;28;20057;-76
2022/02/19 07:17:55;;;;;;;23.50;14.23;;;3.20;99.90;;;;;;5010777;28;20053;-71
2022/02/19 07:20:23;;;;;;;17.55;9.85;;;3.20;99.90;;;;;;5011709;28;20712;-74
2022/02/19 07:22:51;;;;;;;20.60;10.18;;;3.10;99.90;;;;;;5028324;28;20042;-74
2022/02/19 07:25:20;;;;;;;19.52;7.60;;;2.90;99.90;;;;;;5011589;28;20059;-74
2022/02/19 07:27:48;;;;;;;14.65;7.82;;;2.60;99.90;;;;;;4995124;28;20083;-77
2022/02/19 07:30:20;;;;;;;17.67;8.35;;;2.40;99.90;;;;;;5029979;28;20125;-76
2022/02/19 07:32:48;;;;;;;13.15;9.02;;;2.30;99.90;;;;;;5012668;28;20521;-75
2022/02/19 07:35:32;;;;;;;20.17;9.50;;;2.20;99.90;;;;;;5010507;28;20851;-75
2022/02/19 07:37:59;;;;;;;13.25;10.32;;;2.30;99.90;;;;;;4994915;28;20057;-74
2022/02/19 07:40:25;;;;;;;15.07;13.50;;;2.40;99.90;;;;;;5013407;28;20059;-74
2022/02/19 07:42:52;;;;;;;16.80;14.85;;;2.60;99.90;;;;;;5012452;28;20045;-77
2022/02/19 07:45:38;;;;;;;11.75;8.15;;;2.50;99.90;;;;;;5014031;28;20045;-76
2022/02/19 07:48:25;;;;;;;15.50;5.38;;;2.40;99.90;;;;;;5003885;28;20418;-79
2022/02/19 07:59:56;;;;;;;17.15;6.60;;;1.70;99.90;;;;;;4996795;28;20049;-76
2022/02/19 08:02:23;;;;;;;10.77;5.90;;;1.70;99.90;;;;;;5045036;28;20306;-75
2022/02/19 08:04:50;;;;;;;17.48;7.40;;;1.70;99.90;;;;;;5042714;28;20045;-77
2022/02/19 08:07:19;;;;;;;12.38;5.43;;;1.70;99.90;;;;;;5038291;28;20081;-78
2022/02/19 08:09:46;;;;;;;13.07;5.20;;;1.70;99.90;;;;;;5001674;28;20620;-78
2022/02/19 08:12:13;;;;;;;20.58;7.80;;;1.80;99.90;;;;;;5002050;28;20056;-77
2022/02/19 08:14:40;;;;;;;23.25;8.20;;;1.80;99.90;;;;;;5006226;28;20045;-77
2022/02/19 08:17:06;;;;;;;16.85;7.53;;;1.90;99.90;;;;;;5020767;28;20218;-78
2022/02/19 08:19:33;;;;;;;15.73;8.00;;;1.90;99.90;;;;;;5021536;28;20076;-78
2022/02/19 08:22:00;;;;;;;14.07;7.53;;;2.00;99.90;;;;;;5016124;28;20048;-76
2022/02/19 08:24:28;;;;;;;14.93;7.00;;;2.00;99.90;;;;;;5014938;28;20088;-77
2022/02/19 08:26:55;;;;;;;20.67;7.95;;;2.10;99.90;;;;;;5032360;28;20056;-76
2022/02/19 08:29:22;;;;;;;16.85;8.32;;;2.20;99.90;;;;;;5030663;28;20049;-77
2022/02/19 08:31:49;;;;;;;16.48;9.18;;;2.30;99.90;;;;;;4995828;28;20058;-80
2022/02/19 08:34:16;;;;;;;18.90;8.18;;;2.30;99.90;;;;;;4994746;28;20526;-85
2022/02/19 08:36:43;;;;;;;23.52;9.55;;;2.40;99.90;;;;;;4995665;28;20053;-80
2022/02/19 08:39:09;;;;;;;24.48;10.00;;;2.50;99.90;;;;;;5016190;28;20056;-79
2022/02/19 08:41:36;;;;;;;20.10;9.20;;;2.60;99.90;;;;;;5013531;28;20049;-79
2022/02/19 08:44:03;;;;;;;21.38;12.13;;;2.60;99.90;;;;;;5028643;28;20161;-77
2022/02/19 08:46:30;;;;;;;14.45;10.45;;;2.60;99.90;;;;;;5013370;28;20046;-80
2022/02/19 08:48:57;;;;;;;21.42;10.25;;;2.70;99.90;;;;;;5015355;28;20115;-79
2022/02/19 08:51:24;;;;;;;22.58;11.25;;;2.80;99.90;;;;;;5029114;28;20080;-81
2022/02/19 08:53:51;;;;;;;17.20;10.52;;;2.80;99.90;;;;;;5011870;28;20087;-80
2022/02/19 08:56:18;;;;;;;11.40;10.25;;;3.00;99.90;;;;;;5014154;28;20049;-81
2022/02/19 08:58:45;;;;;;;18.60;11.50;;;3.00;99.90;;;;;;5015611;28;20046;-80
2022/02/19 09:01:12;;;;;;;17.23;13.38;;;3.10;99.90;;;;;;5003596;28;20290;-78
2022/02/19 09:03:39;;;;;;;19.65;11.35;;;3.20;99.90;;;;;;5004607;28;20060;-83
2022/02/19 09:06:06;;;;;;;20.90;13.07;;;3.20;99.90;;;;;;5012888;28;20434;-78
2022/02/19 09:08:33;;;;;;;19.92;11.20;;;3.30;99.90;;;;;;5009073;28;20057;-79
2022/02/19 09:11:00;;;;;;;26.02;11.05;;;3.40;99.90;;;;;;5013886;28;20434;-81
2022/02/19 09:13:26;;;;;;;21.00;11.13;;;3.40;99.90;;;;;;5031430;28;20088;-81
2022/02/19 09:15:53;;;;;;;16.45;11.55;;;3.30;99.90;;;;;;5032429;22;20045;-77
2022/02/19 09:18:20;;;;;;;16.08;11.80;;;3.40;99.90;;;;;;5015674;28;20045;-78
2022/02/19 09:20:47;;;;;;;15.13;10.80;;;3.40;99.90;;;;;;5011669;28;20041;-79
2022/02/19 09:23:14;;;;;;;11.48;10.30;;;3.50;99.90;;;;;;4986335;28;20049;-78
2022/02/19 09:25:41;;;;;;;13.02;10.27;;;3.50;99.90;;;;;;5012740;28;20072;-77
2022/02/19 09:28:08;;;;;;;15.10;9.98;;;3.50;99.90;;;;;;4985767;28;20476;-82
2022/02/19 09:30:35;;;;;;;14.07;11.25;;;3.50;99.90;;;;;;4994617;28;20394;-76
2022/02/19 09:33:02;;;;;;;15.65;12.82;;;3.50;99.90;;;;;;5005242;28;20525;-73
2022/02/19 09:35:31;;;;;;;23.45;12.90;;;3.50;99.90;;;;;;5001609;28;20675;-77
2022/02/19 09:37:58;;;;;;;20.90;13.52;;;3.60;99.90;;;;;;4997326;28;20049;-78
2022/02/19 09:40:25;;;;;;;20.35;12.90;;;3.70;99.90;;;;;;5001416;28;20053;-76
2022/02/19 09:42:52;;;;;;;12.85;11.52;;;3.80;99.90;;;;;;5006962;28;20053;-76
2022/02/19 09:45:22;;;;;;;26.05;11.32;;;3.80;99.90;;;;;;5008573;28;20521;-76
2022/02/19 09:47:51;;;;;;;13.70;10.23;;;3.80;99.90;;;;;;4983166;28;20045;-77
2022/02/19 09:50:19;;;;;;;20.98;12.38;;;3.70;99.90;;;;;;4992084;28;20037;-79
2022/02/19 09:52:47;;;;;;;16.92;11.60;;;3.70;99.90;;;;;;5000079;28;20140;-74
2022/02/19 09:55:15;;;;;;;20.90;10.48;;;3.70;99.90;;;;;;5004066;28;20076;-76
2022/02/19 09:57:42;;;;;;;13.27;10.63;;;3.70;99.90;;;;;;5008817;28;20045;-77
2022/02/19 10:00:09;;;;;;;17.40;12.35;;;3.70;99.90;;;;;;5016660;28;20122;-76
2022/02/19 10:02:42;;;;;;;15.70;11.10;;;3.70;99.90;;;;;;4984584;28;20145;-76
2022/02/19 10:05:16;;;;;;;18.05;11.43;;;3.70;99.90;;;;;;4983538;28;20049;-78
2022/02/19 10:07:43;;;;;;;15.18;10.68;;;3.80;99.90;;;;;;5007104;28;20324;-78
2022/02/19 10:10:27;;;;;;;11.80;10.70;;;3.80;99.90;;;;;;4992957;28;20534;-76
2022/02/19 10:12:54;;;;;;;12.77;11.32;;;3.80;99.90;;;;;;5005990;28;20076;-75
2022/02/19 10:15:22;;;;;;;15.02;12.88;;;3.80;99.90;;;;;;4991117;28;20045;-74
2022/02/19 10:17:51;;;;;;;14.98;13.25;;;3.90;99.90;;;;;;5009926;28;20128;-78
2022/02/19 10:20:20;;;;;;;14.73;12.18;;;4.00;99.90;;;;;;5006362;28;20052;-76
2022/02/19 10:22:47;;;;;;;15.10;12.05;;;4.00;99.90;;;;;;5011626;28;20345;-74
2022/02/19 10:25:19;;;;;;;17.75;12.60;;;4.10;99.90;;;;;;5007293;28;20432;-78
2022/02/19 10:27:58;;;;;;;20.73;14.23;;;4.20;99.90;;;;;;4996669;28;20053;-78
2022/02/19 10:30:27;;;;;;;18.35;14.95;;;4.20;99.90;;;;;;5012877;28;20053;-75
2022/02/19 10:33:04;;;;;;;19.27;15.90;;;4.20;99.90;;;;;;5010867;28;20042;-76
2022/02/19 10:35:36;;;;;;;17.73;15.98;;;4.30;99.90;;;;;;5010912;28;20309;-80
2022/02/19 10:38:06;;;;;;;20.85;15.73;;;4.30;99.90;;;;;;5010959;28;20048;-77
2022/02/19 10:40:43;;;;;;;20.55;18.48;;;4.30;99.90;;;;;;5011626;28;20068;-76
2022/02/19 10:43:17;;;;;;;15.63;14.18;;;4.30;99.90;;;;;;5026801;28;20056;-78
2022/02/19 10:45:52;;;;;;;20.97;19.37;;;4.40;99.90;;;;;;5015664;28;20316;-77
2022/02/19 10:48:28;;;;;;;21.50;19.65;;;4.50;99.90;;;;;;4997886;28;20041;-77
2022/02/19 10:51:14;;;;;;;15.85;14.27;;;4.60;99.90;;;;;;4992111;28;20046;-79
2022/02/19 10:53:45;;;;;;;18.58;14.00;;;4.60;99.90;;;;;;4991319;28;20423;-78
2022/02/19 10:56:14;;;;;;;22.85;17.30;;;4.50;99.90;;;;;;5011102;28;20102;-77
2022/02/19 10:59:03;;;;;;;18.67;17.05;;;4.60;99.90;;;;;;4996706;28;20053;-76
2022/02/19 11:01:41;;;;;;;15.43;14.00;;;4.60;99.90;;;;;;5011613;28;20054;-77
2022/02/19 11:04:10;;;;;;;17.20;12.93;;;4.60;99.90;;;;;;5012194;28;20054;-76
2022/02/19 11:06:37;;;;;;;16.08;14.73;;;4.50;99.90;;;;;;5010973;28;20119;-75
2022/02/19 11:09:06;;;;;;;21.08;14.40;;;4.60;99.90;;;;;;5027725;28;20358;-78
2022/02/19 11:11:35;;;;;;;18.20;16.63;;;4.70;99.90;;;;;;5013070;28;20429;-78
2022/02/19 11:14:06;;;;;;;17.58;13.13;;;4.80;99.90;;;;;;5020137;28;20049;-78
2022/02/19 11:16:34;;;;;;;14.55;10.23;;;4.80;99.90;;;;;;5005830;28;20049;-77
2022/02/19 11:19:03;;;;;;;11.38;9.05;;;4.80;99.90;;;;;;5010907;28;20076;-77
2022/02/19 11:21:36;;;;;;;14.02;10.95;;;4.80;99.90;;;;;;5010252;28;20050;-77
2022/02/19 11:24:05;;;;;;;14.40;12.40;;;4.70;99.90;;;;;;5011952;28;20057;-79
2022/02/19 11:26:32;;;;;;;12.88;11.93;;;4.60;99.90;;;;;;5000394;28;20053;-76
2022/02/19 11:29:02;;;;;;;17.65;15.23;;;4.80;99.90;;;;;;4991767;28;20046;-77
2022/02/19 11:31:31;;;;;;;13.98;12.57;;;4.90;99.90;;;;;;4989889;28;20127;-76
2022/02/19 11:34:02;;;;;;;12.07;10.95;;;4.80;99.90;;;;;;4991457;28;20084;-75
2022/02/19 11:36:31;;;;;;;17.27;13.13;;;4.80;99.90;;;;;;4993001;28;20143;-75
2022/02/19 11:39:00;;;;;;;15.85;14.50;;;4.70;99.90;;;;;;5003714;28;20064;-78
2022/02/19 11:41:30;;;;;;;11.85;11.00;;;4.80;99.90;;;;;;5012397;28;20037;-76
2022/02/19 11:43:57;;;;;;;16.05;14.32;;;4.80;99.90;;;;;;5026432;28;20569;-76
2022/02/19 11:46:24;;;;;;;13.57;12.85;;;4.80;99.90;;;;;;5021046;28;20478;-78
2022/02/19 11:48:51;;;;;;;15.95;13.98;;;4.80;99.90;;;;;;5006652;28;20061;-77
2022/02/19 11:51:20;;;;;;;20.02;16.65;;;5.00;99.90;;;;;;5010183;28;20253;-75
2022/02/19 11:53:50;;;;;;;15.55;14.30;;;5.10;99.90;;;;;;5008249;28;20288;-77
2022/02/19 11:56:32;;;;;;;20.25;16.02;;;5.10;99.90;;;;;;4990588;28;20072;-78
2022/02/19 11:59:01;;;;;;;14.95;13.70;;;5.10;99.90;;;;;;5026674;28;20053;-78
2022/02/19 12:01:30;;;;;;;16.95;15.45;;;5.30;99.90;;;;;;5010038;28;20041;-79
2022/02/19 12:04:16;;;;;;;15.38;14.25;;;5.30;99.90;;;;;;5005688;28;20056;-77
2022/02/19 12:06:44;;;;;;;15.38;14.02;;;5.50;99.90;;;;;;4999354;28;20056;-76
2022/02/19 12:09:16;;;;;;;15.98;14.63;;;5.70;99.90;;;;;;5005554;28;20075;-76
2022/02/19 12:11:49;;;;;;;15.88;14.30;;;5.80;99.90;;;;;;5010069;28;20045;-75
2022/02/19 12:14:53;;;;;;;13.95;12.80;;;5.60;99.90;;;;;;5011408;28;20049;-75
2022/02/19 12:17:44;;;;;;;16.05;14.70;;;5.50;99.90;;;;;;5009673;28;20049;-78
2022/02/19 12:20:24;;;;;;;15.65;14.50;;;5.60;99.90;;;;;;5015856;28;20083;-75
2022/02/19 12:22:53;;;;;;;15.25;14.15;;;5.60;99.90;;;;;;5016049;28;20452;-77
2022/02/19 12:25:21;;;;;;;16.98;15.38;;;5.80;99.90;;;;;;5000307;28;20281;-78
2022/02/19 12:28:19;;;;;;;14.25;12.82;;;6.10;99.90;;;;;;5014158;28;20057;-78
2022/02/19 12:30:47;;;;;;;15.50;13.57;;;6.30;99.90;;;;;;4997917;28;20081;-77
2022/02/19 12:33:14;;;;;;;14.18;13.23;;;6.20;99.90;;;;;;5005324;28;20570;-76
2022/02/19 12:35:43;;;;;;;20.75;16.13;;;6.30;99.90;;;;;;5006312;28;20061;-78
2022/02/19 12:38:12;;;;;;;14.70;13.70;;;6.40;99.90;;;;;;5005112;28;20044;-77
2022/02/19 12:40:40;;;;;;;15.75;13.10;;;6.60;99.90;;;;;;5021785;28;20115;-79
2022/02/19 12:43:15;;;;;;;18.02;14.52;;;6.80;99.90;;;;;;5023362;28;20057;-76
2022/02/19 12:45:42;;;;;;;;;;;6.90;99.90;;;;;;5015375;28;20049;-77
2022/02/19 12:48:10;;;;;;;15.65;14.07;;;7.00;99.90;;;;;;5013034;28;19925;-74
2022/02/19 12:50:37;;;;;;;17.58;15.77;;;7.00;99.90;;;;;;4995673;28;20140;-77
2022/02/19 12:53:04;;;;;;;18.17;15.55;;;6.90;99.90;;;;;;5012662;28;20546;-77
2022/02/19 12:55:31;;;;;;;15.20;13.65;;;7.10;99.90;;;;;;5012149;28;20168;-76
2022/02/19 12:58:02;;;;;;;15.93;13.20;;;6.90;99.90;;;;;;5011621;28;20070;-74
2022/02/19 13:00:30;;;;;;;16.23;12.95;;;6.50;99.90;;;;;;5011806;28;20142;-75
2022/02/19 13:03:00;;;;;;;13.77;12.73;;;6.10;99.90;;;;;;5030099;28;20291;-75
2022/02/19 13:05:28;;;;;;;15.35;13.60;;;5.90;99.90;;;;;;5030918;28;20056;-80
2022/02/19 13:08:07;;;;;;;14.88;12.25;;;5.90;99.90;;;;;;5009728;28;20346;-77